This is the latest recevied weather packets stored in our database for station/object OE3MHU-12. If no packets are shown the sender has not sent any weather packets the latest 10 day(s).
| Time | Temp. | Humidity | Pressure | Rain* | Wind** | Luminosity | Snow |
|---|---|---|---|---|---|---|---|
| 1777173976 | 7.78° C | 54% | 1016.6 hPa | 0 mm | - | - | - |
| 1777172176 | 9.44° C | 49% | 1016.2 hPa | 0 mm | - | - | - |
| 1777170376 | 10° C | 45% | 1015.9 hPa | 0 mm | - | - | - |
| 1777168576 | 11.11° C | 44% | 1015.5 hPa | 0 mm | - | - | - |
| 1777166777 | 10° C | 49% | 1015.1 hPa | 0 mm | - | - | - |
| 1777164977 | 11.11° C | 45% | 1014.8 hPa | 0 mm | - | - | - |
| 1777163177 | 11.11° C | 47% | 1014.6 hPa | 0 mm | - | - | - |
| 1777161377 | 9.44° C | 54% | 1014.5 hPa | 0 mm | - | - | - |
| 1777159577 | 10° C | 54% | 1014.2 hPa | 0 mm | - | - | - |
| 1777157777 | 10.56° C | 53% | 1014.1 hPa | 0 mm | - | - | - |
| 1777155977 | 10° C | 55% | 1014.1 hPa | 0 mm | - | - | - |
| 1777154177 | 9.44° C | 60% | 1014.2 hPa | 0 mm | - | - | - |
| 1777152377 | 8.89° C | 63% | 1014 hPa | 0 mm | - | - | - |
| 1777150577 | 10° C | 61% | 1014 hPa | 0 mm | - | - | - |
| 1777148777 | 11.11° C | 57% | 1013.9 hPa | 0 mm | - | - | - |
| 1777146978 | 12.22° C | 53% | 1013.8 hPa | 0 mm | - | - | - |
| 1777145305 | 13.33° C | 51% | 1013.6 hPa | 0 mm | - | - | - |
| 1777145178 | 13.33° C | 51% | 1013.6 hPa | 0 mm | - | - | - |
| 1777143378 | 15° C | 46% | 1013.4 hPa | 0 mm | - | - | - |
| 1777141578 | 16.67° C | 39% | 1013 hPa | 0 mm | - | - | - |
| 1777139778 | 18.33° C | 34% | 1012.6 hPa | 0 mm | - | - | - |
| 1777137978 | 19.44° C | 36% | 1012.2 hPa | 0 mm | - | - | - |
| 1777136178 | 20.56° C | 33% | 1012.1 hPa | 0 mm | - | - | - |
| 1777134378 | 21.67° C | 32% | 1012.1 hPa | 0 mm | - | - | - |
| 1777132578 | 22.22° C | 35% | 1012.1 hPa | 0 mm | - | - | - |
* Rain latest hour (hover to see other rain measurements)
** Current wind speed in m/s (hover to see current wind gust speed)